EDT,Max TemperatureF,Mean TemperatureF,Min TemperatureF,Max Dew PointF,MeanDew PointF,Min DewpointF,Max Humidity, Mean Humidity, Min Humidity, Max Sea Level PressureIn, Mean Sea Level PressureIn, Min Sea Level PressureIn, Max VisibilityMiles, Mean VisibilityMiles, Min VisibilityMiles, Max Wind SpeedMPH, Mean Wind SpeedMPH, Max Gust SpeedMPH,PrecipitationIn, CloudCover, Events, WindDirDegrees
2013-3-1,30,28,25,29,25,19,93,84,74,29.99,29.89,29.79,10,8,2,14,9,23,0.01,8,Snow,326
2013-3-2,28,26,23,22,20,17,91,80,64,29.98,29.92,29.87,10,5,1,14,6,20,0.03,8,Snow,321
2013-3-3,26,24,21,22,19,15,93,79,66,30.03,29.95,29.88,10,6,2,13,8,21,0.00,8,Snow,302
2013-3-4,36,28,19,19,17,14,93,71,44,30.14,30.06,29.96,10,8,2,14,7,22,0.02,5,Snow,295
2013-3-5,45,32,19,26,15,12,81,52,27,30.11,29.93,29.70,10,10,9,15,4,29,0.00,2,,69
2013-3-6,39,34,30,32,29,24,100,85,59,30.12,29.87,29.65,10,4,0,14,9,28,0.34,8,Fog-Snow,40
2013-3-7,39,36,32,31,28,25,92,79,62,30.30,30.21,30.11,10,9,2,13,8,21,0.00,8,Snow,325
2013-3-8,36,32,28,26,25,24,86,77,67,30.43,30.37,30.25,10,10,10,15,11,24,0.00,6,,320
2013-3-9,52,40,27,27,24,20,85,58,34,30.43,30.33,30.20,10,10,9,8,3,,0.01,0,,95
2013-3-10,68,55,42,30,26,21,46,34,21,30.18,30.09,29.99,10,10,10,14,8,22,0.00,2,,151
2013-3-11,63,55,46,48,34,28,93,48,29,29.99,29.85,29.72,10,9,3,18,9,31,0.10,3,Rain,147
2013-3-12,45,40,35,43,33,26,100,79,65,30.01,29.88,29.77,10,10,2,17,11,25,0.10,8,Rain,263
2013-3-13,37,32,26,29,25,17,93,80,59,30.15,29.98,29.89,10,5,0,23,11,38,0.01,7,Fog-Snow,262
2013-3-14,37,30,23,19,17,15,75,60,41,30.24,30.18,30.14,10,10,10,20,13,28,0.00,5,,282
2013-3-15,48,38,28,36,25,18,86,60,48,30.14,29.96,29.83,10,10,6,21,9,26,0.01,5,Rain,243
2013-3-16,39,36,32,38,34,30,100,96,89,29.98,29.77,29.62,10,3,1,12,4,,0.05,8,Rain,11
2013-3-17,37,32,28,28,22,19,89,71,56,30.22,30.13,29.98,10,10,8,9,5,,0.00,6,,351
2013-3-18,39,34,30,35,30,21,100,87,66,30.17,29.90,29.69,10,7,2,18,12,28,0.33,8,Rain-Snow,127
2013-3-19,44,36,28,43,29,15,100,74,41,29.98,29.80,29.67,10,8,2,29,12,41,0.03,6,Rain,255
2013-3-20,39,32,25,19,16,14,69,54,39,29.99,29.92,29.83,10,10,10,21,13,33,0.00,4,,274
2013-3-21,28,22,18,19,13,5,86,69,43,29.93,29.87,29.81,10,8,1,16,9,24,0.00,7,Snow,290
2013-3-22,33,28,24,19,18,16,78,67,54,30.05,29.96,29.86,10,10,7,16,12,24,0.00,6,Snow,276
2013-3-23,46,34,23,22,19,17,78,59,37,30.06,30.02,29.97,10,10,10,12,5,17,0.00,0,,310
2013-3-24,43,34,26,30,23,19,93,69,41,30.00,29.77,29.53,10,8,1,15,7,23,0.00,3,Snow,73
2013-3-25,35,32,30,34,31,28,100,97,87,29.75,29.51,29.42,4,2,0,15,10,22,0.62,8,Fog-Snow,177
2013-3-26,39,34,30,32,30,28,100,86,65,30.09,29.92,29.71,10,6,0,14,8,23,0.08,8,Fog-Snow,313
2013-3-27,41,34,30,31,29,23,100,85,51,30.18,30.09,30.03,10,6,1,14,9,25,0.06,8,Snow,283
2013-3-28,42,37,33,29,28,26,85,69,57,30.28,30.20,30.10,10,9,2,15,10,21,0.01,8,Snow,300
2013-3-29,52,43,36,30,25,18,73,53,29,30.28,30.24,30.17,10,10,10,10,5,21,0.00,7,,291
2013-3-30,54,43,33,26,20,17,66,41,26,30.27,30.18,30.04,10,10,10,8,3,,0.00,0,,162
2013-3-31,48,44,42,45,38,18,93,78,35,30.02,29.80,29.72,10,9,4,13,7,,0.10,6,Rain,196